Time;durP1;ratioP1;P1;durP2;ratioP2;P2;SDS_P1;SDS_P2;PMS_P1;PMS_P2;Temp;Humidity;BMP_temperature;BMP_pressure;BME280_temperature;BME280_humidity;BME280_pressure;Samples;Min_cycle;Max_cycle;Signal;HPM_P1;HPM_P2
2021/03/17 00:01:26;;;;;;;4.30;3.70;;;4.70;99.90;;;;;;5117389;28;20194;-69
2021/03/17 00:03:53;;;;;;;4.68;4.28;;;4.70;99.90;;;;;;5117598;28;20199;-69
2021/03/17 00:06:20;;;;;;;3.95;3.65;;;4.60;99.90;;;;;;5117117;28;20191;-69
2021/03/17 00:08:46;;;;;;;4.70;4.30;;;4.60;99.90;;;;;;5117080;28;20195;-69
2021/03/17 00:11:15;;;;;;;4.30;3.90;;;4.60;99.90;;;;;;5117306;28;20210;-69
2021/03/17 00:13:43;;;;;;;5.22;4.72;;;4.60;99.90;;;;;;5116831;28;20198;-69
2021/03/17 00:16:11;;;;;;;4.22;3.92;;;4.50;99.90;;;;;;5116720;28;20560;-69
2021/03/17 00:18:38;;;;;;;4.20;3.72;;;4.50;99.90;;;;;;5117576;27;20253;-69
2021/03/17 00:21:08;;;;;;;4.95;4.05;;;4.50;99.90;;;;;;5115946;28;20175;-69
2021/03/17 00:23:35;;;;;;;4.75;4.40;;;4.50;99.90;;;;;;5117393;28;20194;-69
2021/03/17 00:26:03;;;;;;;8.13;5.43;;;4.50;99.90;;;;;;5117504;28;20271;-69
2021/03/17 00:28:32;;;;;;;5.45;4.97;;;4.50;99.90;;;;;;5117612;28;20182;-70
2021/03/17 00:31:02;;;;;;;6.45;5.78;;;4.40;99.90;;;;;;5116521;28;20685;-69
2021/03/17 00:33:30;;;;;;;6.25;5.65;;;4.40;99.90;;;;;;5116738;28;20194;-68
2021/03/17 00:35:57;;;;;;;6.90;6.05;;;4.40;99.90;;;;;;5116774;28;20236;-68
2021/03/17 00:38:23;;;;;;;6.10;5.50;;;4.40;99.90;;;;;;5116576;28;20630;-69
2021/03/17 00:40:49;;;;;;;5.72;5.18;;;4.40;99.90;;;;;;5115335;28;20199;-68
2021/03/17 00:43:17;;;;;;;7.38;5.93;;;4.40;99.90;;;;;;5116112;28;20222;-69
2021/03/17 00:45:44;;;;;;;8.23;6.35;;;4.40;99.90;;;;;;5116369;28;20218;-69
2021/03/17 00:48:13;;;;;;;6.32;5.50;;;4.40;99.90;;;;;;5116213;28;20224;-69
2021/03/17 00:50:40;;;;;;;7.35;5.85;;;4.40;99.90;;;;;;5116336;27;20223;-68
2021/03/17 00:53:09;;;;;;;9.25;6.55;;;4.30;99.90;;;;;;5115983;28;20191;-69
2021/03/17 00:55:35;;;;;;;6.38;5.78;;;4.30;99.90;;;;;;5116245;28;20190;-70
2021/03/17 00:58:02;;;;;;;6.65;5.35;;;4.30;99.90;;;;;;5116634;27;20209;-70
2021/03/17 01:00:28;;;;;;;8.55;6.22;;;4.30;99.90;;;;;;5116104;28;20198;-70
2021/03/17 01:02:55;;;;;;;8.32;7.10;;;4.30;99.90;;;;;;5116047;28;20191;-70
2021/03/17 01:05:22;;;;;;;7.32;5.60;;;4.30;99.90;;;;;;5115881;28;20198;-70
2021/03/17 01:07:49;;;;;;;8.43;6.38;;;4.30;99.90;;;;;;5116020;28;20307;-70
2021/03/17 01:10:20;;;;;;;5.88;5.38;;;4.40;99.90;;;;;;5114655;28;20198;-70
2021/03/17 01:12:53;;;;;;;7.72;5.90;;;4.30;99.90;;;;;;5115678;28;20178;-70
2021/03/17 01:15:21;;;;;;;6.85;5.22;;;4.20;99.90;;;;;;5115458;28;20218;-70
2021/03/17 01:17:49;;;;;;;5.75;5.15;;;4.20;99.90;;;;;;5116412;28;20187;-70
2021/03/17 01:20:19;;;;;;;5.88;5.13;;;4.20;99.90;;;;;;5115537;28;20193;-70
2021/03/17 01:22:45;;;;;;;4.85;4.45;;;4.20;99.90;;;;;;5116144;27;20207;-70
2021/03/17 01:25:19;;;;;;;4.80;4.30;;;4.30;99.90;;;;;;5115436;28;20587;-70
2021/03/17 01:27:47;;;;;;;5.47;4.97;;;4.30;99.90;;;;;;5115889;28;20183;-70
2021/03/17 01:30:16;;;;;;;5.10;4.60;;;4.20;99.90;;;;;;5115407;28;20213;-70
2021/03/17 01:32:43;;;;;;;6.82;4.70;;;4.30;99.90;;;;;;5115495;28;20210;-70
2021/03/17 01:35:13;;;;;;;4.53;4.13;;;4.20;99.90;;;;;;5115776;28;20195;-70
2021/03/17 01:37:39;;;;;;;4.50;4.10;;;4.20;99.90;;;;;;5115387;28;20198;-70
2021/03/17 01:40:07;;;;;;;4.30;3.90;;;4.20;99.90;;;;;;5115622;28;20617;-70
2021/03/17 01:42:34;;;;;;;6.63;4.50;;;4.20;99.90;;;;;;5115303;28;20195;-70
2021/03/17 01:45:00;;;;;;;5.60;5.10;;;4.20;99.90;;;;;;5115767;28;20726;-70
2021/03/17 01:47:26;;;;;;;4.70;4.30;;;4.20;99.90;;;;;;5114970;28;20207;-70
2021/03/17 01:49:54;;;;;;;5.15;4.65;;;4.20;99.90;;;;;;5115151;28;20226;-70
2021/03/17 01:52:20;;;;;;;4.30;3.92;;;4.20;99.90;;;;;;5115345;28;20673;-70
2021/03/17 01:54:47;;;;;;;4.85;4.43;;;4.20;99.90;;;;;;5115437;28;20195;-70
2021/03/17 01:57:13;;;;;;;5.25;4.32;;;4.20;99.90;;;;;;5115373;28;20190;-70
2021/03/17 01:59:40;;;;;;;4.45;4.05;;;4.20;99.90;;;;;;5114731;28;20193;-68
2021/03/17 02:02:08;;;;;;;4.30;3.90;;;4.10;99.90;;;;;;5114846;28;20198;-71
2021/03/17 02:04:34;;;;;;;5.05;4.18;;;4.10;99.90;;;;;;5114835;28;20209;-71
2021/03/17 02:07:01;;;;;;;4.40;4.10;;;4.10;99.90;;;;;;5114870;28;20223;-71
2021/03/17 02:09:27;;;;;;;4.15;3.72;;;4.00;99.90;;;;;;5114743;28;20202;-69
2021/03/17 02:12:28;;;;;;;3.97;3.50;;;4.00;99.90;;;;;;5114760;28;20214;-68
2021/03/17 02:15:02;;;;;;;4.15;3.75;;;3.90;99.90;;;;;;5114832;28;20179;-68
2021/03/17 02:17:28;;;;;;;6.40;3.63;;;3.90;99.90;;;;;;5114384;28;20194;-69
2021/03/17 02:20:13;;;;;;;3.95;3.65;;;3.90;99.90;;;;;;5115089;28;20206;-68
2021/03/17 02:23:05;;;;;;;4.35;3.80;;;4.00;99.90;;;;;;5114734;28;20271;-68
2021/03/17 02:25:51;;;;;;;4.30;3.95;;;3.90;99.90;;;;;;5107406;28;20214;-69
2021/03/17 02:28:38;;;;;;;3.67;3.38;;;3.90;99.90;;;;;;5114988;28;20182;-70
2021/03/17 02:31:20;;;;;;;4.30;4.00;;;3.90;99.90;;;;;;5114371;28;20218;-68
2021/03/17 02:34:00;;;;;;;4.22;3.85;;;3.80;99.90;;;;;;5114473;28;20175;-69
2021/03/17 02:36:34;;;;;;;4.30;3.90;;;3.80;99.90;;;;;;5114460;28;20275;-69
2021/03/17 02:39:15;;;;;;;5.97;4.07;;;3.80;99.90;;;;;;5115093;28;20216;-68
2021/03/17 02:41:56;;;;;;;4.53;3.85;;;3.80;99.90;;;;;;5114825;28;20606;-69
2021/03/17 02:44:23;;;;;;;4.57;3.97;;;3.70;99.90;;;;;;5114952;28;20579;-69
2021/03/17 02:46:55;;;;;;;4.45;4.05;;;3.70;99.90;;;;;;5114500;28;20194;-69
2021/03/17 02:49:26;;;;;;;4.28;3.88;;;3.80;99.90;;;;;;5114478;28;20593;-69
2021/03/17 02:51:57;;;;;;;7.97;7.10;;;3.80;99.90;;;;;;5113778;28;20225;-69
2021/03/17 02:54:25;;;;;;;55.05;36.53;;;3.80;99.90;;;;;;5114517;28;20289;-69
2021/03/17 02:56:57;;;;;;;27.67;20.17;;;3.80;99.90;;;;;;5114539;28;20191;-69
2021/03/17 02:59:26;;;;;;;5.78;5.28;;;3.80;99.90;;;;;;5114143;28;20198;-69
2021/03/17 03:01:53;;;;;;;5.18;4.30;;;3.80;99.90;;;;;;5113658;28;20219;-69
2021/03/17 03:04:21;;;;;;;5.50;3.90;;;3.80;99.90;;;;;;5113548;28;20189;-69
2021/03/17 03:06:50;;;;;;;4.40;4.00;;;3.80;99.90;;;;;;5113556;28;20202;-69
2021/03/17 03:09:19;;;;;;;4.25;3.90;;;3.80;99.90;;;;;;5113945;28;20201;-69
2021/03/17 03:11:46;;;;;;;4.00;3.70;;;3.80;99.90;;;;;;5114466;28;20214;-69
2021/03/17 03:14:14;;;;;;;4.65;4.35;;;3.80;99.90;;;;;;5117522;28;20191;-69
2021/03/17 03:16:44;;;;;;;5.50;5.00;;;3.80;99.90;;;;;;5118049;28;20186;-69
2021/03/17 03:19:11;;;;;;;4.38;4.03;;;3.70;99.90;;;;;;5118140;27;20191;-69
2021/03/17 03:21:38;;;;;;;3.92;3.63;;;3.70;99.90;;;;;;5117892;28;20194;-69
2021/03/17 03:24:07;;;;;;;4.78;4.43;;;3.80;99.90;;;;;;5117780;28;20277;-69
2021/03/17 03:26:35;;;;;;;5.28;4.85;;;3.80;99.90;;;;;;5117806;28;20197;-69
2021/03/17 03:29:04;;;;;;;5.25;4.85;;;3.80;99.90;;;;;;5118079;28;20555;-69
2021/03/17 03:31:32;;;;;;;3.83;3.53;;;3.80;99.90;;;;;;5117525;28;20222;-69
2021/03/17 03:34:03;;;;;;;3.55;3.30;;;3.80;99.90;;;;;;5117899;28;20172;-69
2021/03/17 03:36:37;;;;;;;4.20;3.83;;;3.80;99.90;;;;;;5118122;28;20174;-69
2021/03/17 03:39:04;;;;;;;4.10;3.80;;;3.90;99.90;;;;;;5117860;28;20203;-69
2021/03/17 03:41:31;;;;;;;3.90;3.60;;;3.80;99.90;;;;;;5117823;28;20203;-69
2021/03/17 03:43:57;;;;;;;5.80;4.05;;;3.90;99.90;;;;;;5117449;28;20195;-69
2021/03/17 03:46:26;;;;;;;4.13;3.70;;;3.90;99.90;;;;;;5117471;28;20218;-70
2021/03/17 03:48:52;;;;;;;4.15;3.85;;;3.90;99.90;;;;;;5117854;28;20198;-69
2021/03/17 03:51:20;;;;;;;4.60;3.40;;;3.90;99.90;;;;;;5117379;28;20322;-70
2021/03/17 03:54:07;;;;;;;3.83;3.40;;;3.90;99.90;;;;;;5117640;28;20598;-69
2021/03/17 03:57:03;;;;;;;4.20;3.75;;;3.90;99.90;;;;;;5117599;28;20175;-70
2021/03/17 03:59:35;;;;;;;3.38;3.08;;;3.90;99.90;;;;;;5117287;28;20179;-70
2021/03/17 04:02:03;;;;;;;7.70;4.53;;;3.80;99.90;;;;;;5116948;28;20202;-70
2021/03/17 04:04:37;;;;;;;4.68;4.28;;;3.90;99.90;;;;;;5116777;28;20576;-69
2021/03/17 04:07:04;;;;;;;3.83;3.53;;;3.90;99.90;;;;;;5116929;28;20202;-69
2021/03/17 04:09:38;;;;;;;3.90;3.60;;;4.00;99.90;;;;;;5115466;28;20210;-69
2021/03/17 04:12:10;;;;;;;3.35;3.08;;;4.00;99.90;;;;;;5117033;28;20202;-68
2021/03/17 04:14:36;;;;;;;3.40;3.13;;;3.90;99.90;;;;;;5116906;27;20195;-69
2021/03/17 04:17:29;;;;;;;3.50;3.20;;;4.00;99.90;;;;;;5116954;28;20179;-69
2021/03/17 04:20:01;;;;;;;3.50;3.20;;;3.90;99.90;;;;;;5117268;28;20177;-68
2021/03/17 04:22:31;;;;;;;4.30;3.90;;;3.90;99.90;;;;;;5116224;28;20179;-68
2021/03/17 04:25:05;;;;;;;3.90;3.30;;;3.90;99.90;;;;;;5115600;28;20198;-69
2021/03/17 04:27:34;;;;;;;3.95;3.33;;;4.00;99.90;;;;;;5117803;28;20182;-69
2021/03/17 04:30:05;;;;;;;3.30;3.10;;;4.10;99.90;;;;;;5116890;28;20611;-69
2021/03/17 04:32:37;;;;;;;3.45;3.25;;;4.00;99.90;;;;;;5116663;28;20538;-69
2021/03/17 04:35:10;;;;;;;3.75;3.45;;;4.10;99.90;;;;;;5116697;27;20175;-69
2021/03/17 04:37:39;;;;;;;3.90;3.60;;;4.00;99.90;;;;;;5117337;28;20203;-69
2021/03/17 04:40:10;;;;;;;3.30;3.10;;;4.00;99.90;;;;;;5116617;28;20195;-69
2021/03/17 04:42:39;;;;;;;3.45;3.25;;;4.10;99.90;;;;;;5116230;27;20207;-69
2021/03/17 04:45:10;;;;;;;4.00;3.65;;;4.20;99.90;;;;;;5116633;28;20178;-69
2021/03/17 04:47:41;;;;;;;3.63;3.40;;;4.10;99.90;;;;;;5116390;28;20179;-69
2021/03/17 04:50:10;;;;;;;4.00;3.70;;;4.10;99.90;;;;;;5116015;28;20234;-69
2021/03/17 04:52:39;;;;;;;3.55;3.35;;;4.10;99.90;;;;;;5116361;28;20218;-69
2021/03/17 04:55:10;;;;;;;3.20;3.00;;;4.00;99.90;;;;;;5116282;28;20587;-69
2021/03/17 04:57:40;;;;;;;6.03;5.50;;;4.00;99.90;;;;;;5116105;28;20198;-69
2021/03/17 05:00:09;;;;;;;3.60;3.40;;;4.00;99.90;;;;;;5116192;28;20187;-69
2021/03/17 05:02:38;;;;;;;3.58;3.38;;;4.10;99.90;;;;;;5116362;28;20194;-69
2021/03/17 05:05:08;;;;;;;4.28;3.97;;;4.10;99.90;;;;;;5115938;28;20182;-69
2021/03/17 05:07:38;;;;;;;4.97;4.57;;;4.10;99.90;;;;;;5116103;28;20210;-69
2021/03/17 05:10:13;;;;;;;4.13;3.75;;;4.10;99.90;;;;;;5115871;28;20186;-69
2021/03/17 05:12:44;;;;;;;5.88;5.00;;;4.10;99.90;;;;;;5116087;28;20222;-69
2021/03/17 05:15:11;;;;;;;4.82;4.50;;;4.20;99.90;;;;;;5115777;27;20198;-69
2021/03/17 05:17:38;;;;;;;4.90;4.40;;;4.20;99.90;;;;;;5115875;28;20259;-69
2021/03/17 05:20:16;;;;;;;4.90;4.50;;;4.20;99.90;;;;;;5115864;28;20660;-69
2021/03/17 05:22:44;;;;;;;8.07;4.55;;;4.20;99.90;;;;;;5115565;28;20214;-69
2021/03/17 05:25:12;;;;;;;5.22;4.72;;;4.30;99.90;;;;;;5115821;28;20186;-69
2021/03/17 05:27:39;;;;;;;6.63;5.55;;;4.30;99.90;;;;;;5115501;28;20198;-69
2021/03/17 05:30:09;;;;;;;6.50;4.82;;;4.30;99.90;;;;;;5115332;28;20671;-69
2021/03/17 05:32:36;;;;;;;5.90;5.40;;;4.30;99.90;;;;;;5115433;28;20305;-69
2021/03/17 05:35:10;;;;;;;8.60;7.57;;;4.30;99.90;;;;;;5114738;28;20213;-69
2021/03/17 05:37:39;;;;;;;9.80;8.10;;;4.40;99.90;;;;;;5115597;28;20621;-69
2021/03/17 05:40:11;;;;;;;12.00;8.90;;;4.50;99.90;;;;;;5115239;28;20198;-69
2021/03/17 05:42:42;;;;;;;14.68;10.18;;;4.50;99.90;;;;;;5115161;28;20194;-69
2021/03/17 05:45:17;;;;;;;20.42;12.50;;;4.50;99.90;;;;;;5115244;28;20656;-69
2021/03/17 05:47:50;;;;;;;19.65;12.82;;;4.50;99.90;;;;;;5115092;28;20170;-69
2021/03/17 05:50:21;;;;;;;28.27;17.02;;;4.50;99.90;;;;;;5114873;28;20230;-69
2021/03/17 05:52:49;;;;;;;29.35;17.35;;;4.50;99.90;;;;;;5115084;28;20264;-69
2021/03/17 05:55:16;;;;;;;22.27;15.00;;;4.60;99.90;;;;;;5113628;28;20226;-69
2021/03/17 05:57:44;;;;;;;25.58;16.48;;;4.60;99.90;;;;;;5114841;28;20186;-69
2021/03/17 06:00:13;;;;;;;23.05;14.50;;;4.60;99.90;;;;;;5115044;28;20197;-69
2021/03/17 06:02:40;;;;;;;18.95;12.05;;;4.60;99.90;;;;;;5115050;27;20222;-69
2021/03/17 06:05:12;;;;;;;22.48;13.68;;;4.60;99.90;;;;;;5114996;28;20179;-69
2021/03/17 06:07:47;;;;;;;21.92;14.52;;;4.60;99.90;;;;;;5114902;28;20187;-69
2021/03/17 06:10:16;;;;;;;27.23;15.85;;;4.60;99.90;;;;;;5115249;28;20535;-69
2021/03/17 06:12:49;;;;;;;23.35;13.30;;;4.70;99.90;;;;;;5114558;28;20237;-70
2021/03/17 06:15:23;;;;;;;25.27;14.98;;;4.70;99.90;;;;;;5114555;28;20178;-70
2021/03/17 06:18:10;;;;;;;21.02;14.13;;;4.70;99.90;;;;;;5115167;28;20209;-70
2021/03/17 06:20:38;;;;;;;25.63;15.10;;;4.70;99.90;;;;;;5115336;27;20202;-70
2021/03/17 06:23:07;;;;;;;21.90;13.80;;;4.60;99.90;;;;;;5114483;28;20557;-70
2021/03/17 06:25:34;;;;;;;18.23;12.60;;;4.60;99.90;;;;;;5114553;28;20655;-70
2021/03/17 06:28:02;;;;;;;22.13;15.05;;;4.60;99.90;;;;;;5114890;28;20645;-70
2021/03/17 06:30:28;;;;;;;18.60;13.50;;;4.60;99.90;;;;;;5114482;27;20561;-70
2021/03/17 06:32:55;;;;;;;24.15;12.65;;;4.70;99.90;;;;;;5114292;28;20236;-70
2021/03/17 06:35:24;;;;;;;20.38;13.05;;;4.70;99.90;;;;;;5114157;28;20244;-70
2021/03/17 06:37:53;;;;;;;22.63;14.45;;;4.70;99.90;;;;;;5113843;28;20178;-70
2021/03/17 06:40:28;;;;;;;21.52;14.02;;;4.70;99.90;;;;;;5114233;28;20193;-70
2021/03/17 06:43:10;;;;;;;20.42;13.75;;;4.70;99.90;;;;;;5114409;28;20564;-70
2021/03/17 06:45:47;;;;;;;19.33;13.23;;;4.70;99.90;;;;;;5114361;28;20297;-70
2021/03/17 06:48:19;;;;;;;21.35;14.88;;;4.70;99.90;;;;;;5114128;28;20653;-70
2021/03/17 06:50:59;;;;;;;22.80;15.50;;;4.80;99.90;;;;;;5113782;28;20579;-70
2021/03/17 06:53:39;;;;;;;25.02;17.48;;;4.80;99.90;;;;;;5113967;28;20202;-70
2021/03/17 06:56:16;;;;;;;19.65;12.75;;;4.70;99.90;;;;;;5114158;28;20175;-70
2021/03/17 06:58:48;;;;;;;18.23;13.25;;;4.70;99.90;;;;;;5112790;28;20210;-70
2021/03/17 07:01:40;;;;;;;18.98;14.35;;;4.70;99.90;;;;;;5114151;28;20175;-70
2021/03/17 07:04:11;;;;;;;20.55;13.68;;;4.70;99.90;;;;;;5114125;28;20213;-70
2021/03/17 07:06:43;;;;;;;23.15;14.18;;;4.70;99.90;;;;;;5114205;28;20547;-70
2021/03/17 07:09:15;;;;;;;24.98;16.60;;;4.60;99.90;;;;;;5114502;28;20308;-70
2021/03/17 07:11:42;;;;;;;21.75;13.15;;;4.60;99.90;;;;;;5114324;28;20638;-70
2021/03/17 07:14:10;;;;;;;21.98;14.50;;;4.60;99.90;;;;;;5114074;28;20599;-71
2021/03/17 07:16:38;;;;;;;21.75;14.52;;;4.60;99.90;;;;;;5113772;28;20601;-70
2021/03/17 07:19:06;;;;;;;23.25;13.23;;;4.70;99.90;;;;;;5113880;28;20660;-71
2021/03/17 07:21:39;;;;;;;19.75;12.85;;;4.70;99.90;;;;;;5114098;28;20547;-72
2021/03/17 07:24:08;;;;;;;25.60;14.35;;;4.70;99.90;;;;;;5113758;28;21324;-70
2021/03/17 07:26:38;;;;;;;15.43;12.02;;;4.70;99.90;;;;;;5115460;28;20202;-70
2021/03/17 07:29:13;;;;;;;17.90;12.10;;;4.70;99.90;;;;;;5115449;28;20179;-70
2021/03/17 07:31:48;;;;;;;22.13;13.82;;;4.70;99.90;;;;;;5115367;28;20233;-70
2021/03/17 07:34:24;;;;;;;18.80;12.32;;;4.70;99.90;;;;;;5116261;28;20175;-71
2021/03/17 07:37:04;;;;;;;22.98;13.02;;;4.80;99.90;;;;;;5115797;28;20175;-70
2021/03/17 07:39:35;;;;;;;24.08;14.73;;;5.10;99.90;;;;;;5114471;28;20181;-70
2021/03/17 07:42:06;;;;;;;17.90;12.73;;;5.30;99.90;;;;;;5114298;28;20674;-70
2021/03/17 07:44:36;;;;;;;19.98;11.88;;;5.40;99.90;;;;;;5112959;28;20186;-70
2021/03/17 07:47:10;;;;;;;14.38;10.35;;;5.60;99.90;;;;;;5114139;28;20210;-70
2021/03/17 07:49:42;;;;;;;21.05;12.35;;;5.80;99.90;;;;;;5113410;28;20226;-70
2021/03/17 07:52:17;;;;;;;13.30;10.40;;;6.00;99.90;;;;;;5113779;28;20226;-70
2021/03/17 07:54:49;;;;;;;17.17;9.20;;;6.20;99.90;;;;;;5113982;28;20205;-70
2021/03/17 07:57:20;;;;;;;14.43;9.25;;;6.40;99.90;;;;;;5113859;28;20688;-70
2021/03/17 07:59:49;;;;;;;13.75;9.80;;;6.70;99.90;;;;;;5116356;28;20553;-71
2021/03/17 08:02:19;;;;;;;12.90;8.75;;;6.60;99.90;;;;;;5117485;28;20201;-71
2021/03/17 08:04:46;;;;;;;14.05;9.88;;;6.50;99.90;;;;;;5117946;28;20202;-70
2021/03/17 08:07:14;;;;;;;11.68;8.85;;;6.80;99.90;;;;;;5117733;28;20210;-70
2021/03/17 08:09:43;;;;;;;14.27;9.35;;;6.90;99.90;;;;;;5117679;27;20256;-70
2021/03/17 08:12:11;;;;;;;15.27;9.00;;;6.90;99.90;;;;;;5117696;28;20190;-71
2021/03/17 08:14:42;;;;;;;11.00;8.25;;;6.80;99.90;;;;;;5116854;28;20202;-70
2021/03/17 08:17:12;;;;;;;12.00;8.35;;;6.60;99.90;;;;;;5104147;28;20222;-70
2021/03/17 08:19:42;;;;;;;11.18;7.82;;;6.40;99.90;;;;;;5116528;28;20581;-70
2021/03/17 08:22:09;;;;;;;11.70;8.10;;;6.40;99.90;;;;;;5116352;28;20193;-70
2021/03/17 08:24:39;;;;;;;12.82;8.45;;;5.90;99.90;;;;;;5116136;27;20187;-71
2021/03/17 08:27:08;;;;;;;12.65;9.32;;;6.00;99.90;;;;;;5107252;28;20575;-70
2021/03/17 08:29:38;;;;;;;12.85;9.18;;;6.10;99.90;;;;;;5112056;28;20197;-70
2021/03/17 08:32:07;;;;;;;13.45;10.02;;;6.20;99.90;;;;;;5116478;28;20226;-70
2021/03/17 08:34:35;;;;;;;10.68;8.95;;;6.60;99.90;;;;;;5116763;28;20209;-70
2021/03/17 08:37:04;;;;;;;12.18;8.60;;;6.60;99.90;;;;;;5117444;27;20191;-70
2021/03/17 08:39:33;;;;;;;11.30;7.90;;;6.90;99.90;;;;;;5116311;28;20210;-70
2021/03/17 08:42:26;;;;;;;9.43;8.13;;;7.10;99.90;;;;;;5115938;28;20190;-70
2021/03/17 08:44:54;;;;;;;10.95;7.88;;;7.30;99.90;;;;;;5116492;28;20658;-70
2021/03/17 08:47:33;;;;;;;10.65;7.05;;;7.20;99.90;;;;;;5116227;28;20247;-70
2021/03/17 08:50:15;;;;;;;9.43;6.90;;;7.30;99.90;;;;;;5116081;27;20313;-70
2021/03/17 08:52:46;;;;;;;14.20;7.55;;;7.70;99.90;;;;;;5116193;28;20577;-70
2021/03/17 08:55:33;;;;;;;11.27;7.25;;;7.70;99.90;;;;;;5116297;27;20653;-70
2021/03/17 08:58:09;;;;;;;12.70;6.38;;;7.50;99.90;;;;;;5116218;28;20187;-70
2021/03/17 09:00:49;;;;;;;9.32;7.82;;;7.60;99.90;;;;;;5116220;28;20183;-69
2021/03/17 09:03:32;;;;;;;10.48;6.28;;;7.60;99.90;;;;;;5116017;28;20198;-69
2021/03/17 09:06:23;;;;;;;9.13;7.45;;;7.50;99.90;;;;;;5102338;28;20209;-70
2021/03/17 09:08:56;;;;;;;7.95;6.88;;;7.70;99.90;;;;;;5114154;28;20263;-70
2021/03/17 09:11:29;;;;;;;8.50;6.65;;;7.80;99.90;;;;;;5107310;27;20201;-70
2021/03/17 09:14:02;;;;;;;11.82;8.00;;;8.00;99.90;;;;;;5116238;28;20241;-70
2021/03/17 09:16:32;;;;;;;8.45;7.10;;;7.90;99.90;;;;;;5116211;28;20199;-70
2021/03/17 09:19:10;;;;;;;9.20;7.40;;;7.80;99.90;;;;;;5116127;28;20191;-70
2021/03/17 09:21:39;;;;;;;13.93;7.53;;;7.40;99.90;;;;;;5116277;27;20245;-69
2021/03/17 09:24:28;;;;;;;11.13;7.38;;;7.40;99.90;;;;;;5116005;28;20198;-70
2021/03/17 09:27:06;;;;;;;11.65;8.85;;;7.40;99.90;;;;;;5115915;28;20197;-70
2021/03/17 09:29:37;;;;;;;15.02;8.07;;;7.40;99.90;;;;;;5115643;28;20174;-70
2021/03/17 09:32:05;;;;;;;13.30;7.78;;;7.20;99.90;;;;;;5115714;28;20218;-70
2021/03/17 09:34:33;;;;;;;14.02;7.55;;;7.00;99.90;;;;;;5115713;28;20211;-70
2021/03/17 09:37:04;;;;;;;13.95;9.23;;;7.20;99.90;;;;;;5115993;27;20294;-70
2021/03/17 09:39:45;;;;;;;10.25;8.05;;;6.90;99.90;;;;;;5115579;28;20203;-70
2021/03/17 09:42:17;;;;;;;11.05;7.55;;;6.80;99.90;;;;;;5115572;28;20224;-70
2021/03/17 09:44:44;;;;;;;13.13;8.40;;;6.80;99.90;;;;;;5115472;28;20197;-70
2021/03/17 09:47:10;;;;;;;13.10;8.15;;;7.10;99.90;;;;;;5115644;28;20273;-70
2021/03/17 09:49:37;;;;;;;9.73;7.63;;;7.00;99.90;;;;;;5115495;27;20241;-70
2021/03/17 09:52:06;;;;;;;10.27;7.40;;;6.80;99.90;;;;;;5115547;28;20191;-69
2021/03/17 09:54:36;;;;;;;8.85;6.72;;;6.90;99.90;;;;;;5115423;28;20175;-70
2021/03/17 09:57:05;;;;;;;7.22;5.30;;;7.10;99.90;;;;;;5116213;28;20197;-70
2021/03/17 09:59:42;;;;;;;7.97;7.00;;;7.10;99.90;;;;;;5116089;28;20167;-70
2021/03/17 10:02:17;;;;;;;10.55;6.47;;;7.00;99.90;;;;;;5114857;28;20208;-69
2021/03/17 10:04:48;;;;;;;10.05;5.88;;;6.40;99.90;;;;;;5115193;28;20206;-69
2021/03/17 10:07:18;;;;;;;7.72;6.35;;;6.50;99.90;;;;;;5099887;28;20190;-69
2021/03/17 10:09:47;;;;;;;5.57;5.05;;;6.80;99.90;;;;;;5115773;27;20642;-70
2021/03/17 10:12:17;;;;;;;6.22;5.15;;;7.10;99.90;;;;;;5114474;28;20613;-70
2021/03/17 10:14:45;;;;;;;6.57;5.00;;;7.10;99.90;;;;;;5114847;28;20193;-70
2021/03/17 10:17:13;;;;;;;5.05;4.55;;;7.10;99.90;;;;;;5114076;28;20197;-70
2021/03/17 10:19:40;;;;;;;6.50;4.75;;;7.20;99.90;;;;;;5102236;28;20556;-70
2021/03/17 10:22:10;;;;;;;7.00;5.47;;;7.40;99.90;;;;;;5113529;28;20186;-70
2021/03/17 10:24:45;;;;;;;5.82;3.47;;;7.30;99.90;;;;;;5114734;28;20193;-70
2021/03/17 10:27:14;;;;;;;5.30;3.33;;;6.80;99.90;;;;;;5109961;28;20717;-70
2021/03/17 10:29:42;;;;;;;5.93;3.67;;;6.90;99.90;;;;;;5105403;28;20206;-70
2021/03/17 10:32:14;;;;;;;3.95;3.65;;;7.10;99.90;;;;;;5114596;28;20652;-70
2021/03/17 10:34:41;;;;;;;4.72;3.55;;;7.10;99.90;;;;;;5115864;28;20222;-69
2021/03/17 10:37:12;;;;;;;5.15;3.75;;;6.80;99.90;;;;;;5115577;28;20190;-70
2021/03/17 10:39:39;;;;;;;3.97;3.25;;;7.20;99.90;;;;;;5115257;28;20194;-70
2021/03/17 10:42:18;;;;;;;4.38;3.30;;;7.40;99.90;;;;;;5114372;28;20190;-70
2021/03/17 10:45:20;;;;;;;4.85;4.13;;;7.00;99.90;;;;;;5115210;28;20258;-70
2021/03/17 10:47:48;;;;;;;5.20;4.70;;;6.90;99.90;;;;;;5113385;28;20202;-71
2021/03/17 10:50:18;;;;;;;8.23;5.53;;;6.70;99.90;;;;;;5114577;28;20281;-71
2021/03/17 10:52:46;;;;;;;6.35;5.75;;;7.00;99.90;;;;;;5113535;28;20222;-70
2021/03/17 10:55:22;;;;;;;9.38;5.25;;;7.10;99.90;;;;;;5114904;28;20202;-70
2021/03/17 10:57:49;;;;;;;6.40;5.80;;;6.80;99.90;;;;;;5115376;28;20198;-70
2021/03/17 11:00:20;;;;;;;10.55;7.97;;;6.50;99.90;;;;;;5114644;28;20198;-69
2021/03/17 11:02:47;;;;;;;8.38;6.78;;;6.10;99.90;;;;;;5115762;28;20622;-70
2021/03/17 11:05:42;;;;;;;6.55;5.82;;;5.80;99.90;;;;;;5115193;28;20582;-71
2021/03/17 11:08:10;;;;;;;7.90;4.60;;;5.50;99.90;;;;;;5112471;28;20202;-69
2021/03/17 11:10:51;;;;;;;5.47;4.93;;;5.40;99.90;;;;;;5114021;28;20190;-69
2021/03/17 11:13:20;;;;;;;5.55;5.05;;;5.00;99.90;;;;;;5113706;28;20230;-70
2021/03/17 11:15:58;;;;;;;6.72;5.80;;;5.10;99.90;;;;;;5114154;28;20202;-70
2021/03/17 11:18:47;;;;;;;6.63;5.43;;;5.40;99.90;;;;;;5113775;28;20259;-71
2021/03/17 11:21:27;;;;;;;6.07;5.22;;;5.80;99.90;;;;;;5114825;28;20175;-69
2021/03/17 11:23:56;;;;;;;6.55;5.82;;;6.30;99.90;;;;;;5115246;28;20195;-69
2021/03/17 11:26:40;;;;;;;6.15;5.53;;;6.70;99.90;;;;;;5116732;28;20256;-69
2021/03/17 11:29:17;;;;;;;6.35;5.60;;;7.40;99.90;;;;;;5115220;28;20201;-70
2021/03/17 11:31:52;;;;;;;5.25;4.75;;;8.10;99.90;;;;;;5114248;28;20342;-70
2021/03/17 11:34:21;;;;;;;6.00;4.57;;;8.50;99.90;;;;;;5117670;28;20653;-70
2021/03/17 11:36:48;;;;;;;5.15;4.70;;;8.80;99.90;;;;;;5117897;27;20268;-70
2021/03/17 11:39:16;;;;;;;5.85;5.30;;;8.90;99.90;;;;;;5117833;28;20190;-71
2021/03/17 11:41:45;;;;;;;6.50;5.88;;;8.50;99.90;;;;;;5117857;27;20198;-70
2021/03/17 11:44:20;;;;;;;6.03;5.40;;;8.80;99.90;;;;;;5118385;28;20198;-70
2021/03/17 11:46:50;;;;;;;7.78;5.95;;;9.30;99.90;;;;;;5117808;28;20202;-70
2021/03/17 11:49:17;;;;;;;8.45;5.05;;;9.70;99.90;;;;;;5118318;27;20210;-70
2021/03/17 11:51:44;;;;;;;5.82;5.30;;;9.80;99.90;;;;;;5118941;28;20624;-70
2021/03/17 11:54:11;;;;;;;6.68;6.03;;;9.70;99.90;;;;;;5118062;28;20214;-70
2021/03/17 11:56:37;;;;;;;5.75;5.25;;;9.80;99.90;;;;;;5118502;27;20259;-69
2021/03/17 11:59:04;;;;;;;7.82;6.05;;;10.10;99.90;;;;;;5117891;28;20207;-69
2021/03/17 12:01:33;;;;;;;7.68;5.03;;;10.10;99.90;;;;;;5118125;28;20186;-69
2021/03/17 12:04:01;;;;;;;5.75;5.10;;;10.00;99.90;;;;;;5117426;28;20663;-69
2021/03/17 12:06:30;;;;;;;4.70;4.20;;;9.70;99.90;;;;;;5117482;28;20206;-69
2021/03/17 12:08:56;;;;;;;4.80;4.38;;;10.30;99.90;;;;;;5118280;28;20198;-70
2021/03/17 12:11:24;;;;;;;5.07;4.63;;;10.90;99.90;;;;;;5119108;28;20198;-70
2021/03/17 12:13:52;;;;;;;4.03;3.63;;;10.70;99.90;;;;;;5118333;28;20639;-70
2021/03/17 12:16:20;;;;;;;4.87;4.17;;;10.20;99.90;;;;;;5118775;28;21081;-69
2021/03/17 12:18:47;;;;;;;4.93;4.53;;;10.20;99.90;;;;;;5120554;28;20606;-71
2021/03/17 12:21:14;;;;;;;7.00;4.25;;;10.20;99.90;;;;;;5120749;28;20966;-71
2021/03/17 12:23:42;;;;;;;4.35;3.95;;;10.20;99.90;;;;;;5118350;28;20206;-71
2021/03/17 12:26:11;;;;;;;4.57;4.28;;;10.50;99.90;;;;;;5118271;28;20207;-70
2021/03/17 12:28:38;;;;;;;3.10;2.90;;;10.80;99.90;;;;;;5117179;28;20201;-70
2021/03/17 12:31:06;;;;;;;3.10;2.90;;;10.40;99.90;;;;;;5117614;27;20210;-69
2021/03/17 12:33:36;;;;;;;3.23;3.03;;;11.40;99.90;;;;;;5117744;28;20677;-70
2021/03/17 12:36:04;;;;;;;3.27;3.07;;;11.50;99.90;;;;;;5116900;28;21087;-69
2021/03/17 12:38:32;;;;;;;3.20;2.90;;;9.50;99.90;;;;;;5117309;28;20626;-69
2021/03/17 12:40:59;;;;;;;4.05;3.55;;;9.40;99.90;;;;;;5116591;28;20681;-70
2021/03/17 12:43:25;;;;;;;3.33;3.08;;;10.00;99.90;;;;;;5116550;28;20197;-70
2021/03/17 12:45:52;;;;;;;3.55;3.33;;;10.30;99.90;;;;;;5117167;27;20202;-70
2021/03/17 12:48:19;;;;;;;4.35;4.00;;;11.10;99.90;;;;;;5115556;28;20202;-70
2021/03/17 12:50:50;;;;;;;4.27;3.97;;;11.10;99.90;;;;;;5116837;28;20246;-70
2021/03/17 12:53:22;;;;;;;7.00;4.00;;;11.30;99.90;;;;;;5116791;28;20560;-70
2021/03/17 12:55:48;;;;;;;12.80;8.93;;;12.60;99.90;;;;;;5117757;28;20608;-71
2021/03/17 12:58:17;;;;;;;6.00;4.90;;;14.40;99.90;;;;;;5117832;28;20607;-69
2021/03/17 13:00:45;;;;;;;4.53;4.13;;;13.30;99.90;;;;;;5118168;28;20657;-70
2021/03/17 13:03:11;;;;;;;4.53;3.70;;;13.50;99.90;;;;;;5118521;27;20586;-70
2021/03/17 13:05:37;;;;;;;3.30;3.00;;;12.60;99.90;;;;;;5117075;28;20998;-69
2021/03/17 13:08:05;;;;;;;2.30;2.10;;;9.20;99.90;;;;;;5116999;28;20579;-69
2021/03/17 13:10:34;;;;;;;4.05;2.08;;;7.00;99.90;;;;;;5116333;28;20220;-71